01h33 EDT


 

Suivi/Infos de l'aéroport


-ou-


 

Suivi des vols en temps réelNetjets Aviation #914

EJA914
Netjets Aviation "Execjet" (tous les vols) · Columbus, OH
Morristown Muni ( – info)
Morristown, NJ
Int'l de Philadelphie ( – info)
Philadelphie
15h08 EDT
15h35 EDT
Prévu: 15h00 EDT
Prévu: 15h12 EDT
Durée: 27 minutes
mercredi, 30 juillet 2014
Statut A atterri il y a plus de 9 heures (journal de vol & graphique)
Avion Cessna Citation X (biréacteur) (C750/L – photos)
Vitesse Plan de vol: 255 kts (graphique)
Altitude Plan de vol: 8.000 Pieds (graphique)
Distance En ligne droite 125 km    Prévue 183 km    Parcourue 193 km
Route SBJ BUSKY PTW (Décoder)
JOURNAL DE L'ACTIVITE
Vous voulez une recherche complète sur l'historique de EJA914 depuis 1998? Achetez maintenant. Recevez-le dans l'heure.
Date Avion Provenance Destination Départ Arrivée Durée
30-07-2014 C750/LMorristown Muni ()Int'l de Philadelphie () 15h08 EDT 15h35 EDT 0:27
30-07-2014 C750/LFlagler County ()Morristown Muni () 10h27 EDT 12h19 EDT 1:52
30-07-2014 C750/LNaples Muni ()Flagler County () 09h27 EDT 10h11 EDT 0:44
29-07-2014 C750/LNaples Muni ()Int'l d'Orlando () 16h58 EDT 17h29 EDT (?) 0:31
29-07-2014 C750/LEaston/Newnam Field ()Naples Muni () 12h00 EDT 14h07 EDT 2:07
29-07-2014 C750/LCharlottesville-Albemarle ()Easton/Newnam Field () 09h27 EDT 09h50 EDT 0:23
29-07-2014 C750/LTeterboro ()Charlottesville-Albemarle () 07h16 EDT 08h01 EDT 0:45
28-07-2014 C750/LInt'l Logan ()Teterboro () 16h16 EDT 17h03 EDT 0:47
28-07-2014 C750/LNantucket Memorial ()Int'l Logan () 15h14 EDT 15h37 EDT 0:23
28-07-2014 C750/LLong Island Mac Arthur ()Nantucket Memorial () 12h31 EDT 13h05 EDT 0:34
28-07-2014 C750/LNorth Bay/Jack Garland (North Bay) ()Long Island Mac Arthur () 09h13 EDT 10h32 EDT 1:19
28-07-2014 C750/LTeterboro ()North Bay/Jack Garland (North Bay) () 06h59 EDT 08h02 EDT 1:03
27-07-2014 C750/LSalina Rgnl ()Teterboro () 14h47 CDT 17h55 EDT 2:08
27-07-2014 C750/LTelluride Rgnl ()Salina Rgnl () 12h19 MDT 14h27 CDT 1:08
27-07-2014 C750/LJackson Hole ()Telluride Rgnl () 10h18 MDT 11h09 MDT 0:51
27-07-2014 C750/LWestchester County ()Jackson Hole () 07h10 EDT 09h02 MDT 3:52
26-07-2014 C750/LAugusta State ()Westchester County () 17h41 EDT 18h32 EDT 0:51
26-07-2014 C750/LLaGuardia ()Augusta State () 15h54 EDT 16h31 EDT 0:36
26-07-2014 C750/LSouth Bend Intl ()LaGuardia () 11h19 EDT 12h41 EDT 1:22
26-07-2014 C750/LInt'l de Cleveland-Hopkins ()South Bend Intl () 09h50 EDT 10h30 EDT 0:40
25-07-2014 C750/LInt'l Austin-Bergstrom ()Int'l de Cleveland-Hopkins () 14h50 CDT 18h11 EDT 2:21
25-07-2014 C750/LHalliburton Field ()Int'l Austin-Bergstrom () 12h26 CDT 13h07 CDT 0:41
25-07-2014 C750/LGainesville Rgnl ()Halliburton Field () 10h40 EDT 11h27 CDT 1:47
25-07-2014 C750/LDestin-Fort Walton Beach ()Gainesville Rgnl () 07h07 CDT 08h46 EDT 0:39
24-07-2014 C750/LEasterwood Field ()Destin-Fort Walton Beach () 16h16 CDT 17h31 CDT 1:15
24-07-2014 C750/LAspen-Pitkin County ()Easterwood Field () 12h27 MDT 15h06 CDT 1:39
24-07-2014 C750/LSugar Land Rgnl ()Aspen-Pitkin County () 10h00 CDT 11h10 MDT 2:10
24-07-2014 C750/LSanta Fe Muni ()Sugar Land Rgnl () 06h24 MDT 09h01 CDT 1:37
23-07-2014 C750/LSan Antonio Intl ()Santa Fe Muni () 12h25 CDT 12h42 MDT 1:17
23-07-2014 C750/LSanta Fe Muni ()San Antonio Intl () 08h49 MDT 11h03 CDT 1:14
23-07-2014 C750San Antonio Intl ()Santa Fe Muni () 07h03 CDT 07h20 MDT 1:17
22-07-2014 C750/LInt'l Austin-Bergstrom ()San Antonio Intl () 20h18 CDT 20h39 CDT 0:21
22-07-2014 C750/LCoeur D'Alene - Pappy Boyington Field ()Int'l Austin-Bergstrom () 12h52 PDT 17h39 CDT 2:47
22-07-2014 C750/LInt'l de San José ()Coeur D'Alene - Pappy Boyington Field () 09h46 PDT 11h19 PDT 1:33
22-07-2014 C750/LInt'l de San Diego ()Int'l de San José () 07h49 PDT 08h44 PDT 0:55
20-07-2014 C750/LJohn-Wayne ()Int'l de San Diego () 19h33 PDT 19h55 PDT 0:22
20-07-2014 C750/LMammoth Yosemite ()John-Wayne () 17h10 PDT 18h08 PDT 0:58
20-07-2014 C750Int'l de San José ()Mammoth Yosemite () 15h05 PDT 15h34 PDT 0:29
20-07-2014 C750/LInt'l McCarran ()Int'l de San José () 11h00 PDT 11h53 PDT 0:53
19-07-2014 C750/LSanta Monica Muni ()Int'l McCarran () 16h09 PDT 17h01 PDT 0:52
19-07-2014 C750/LSacramento Intl ()Santa Monica Muni () 14h18 PDT 15h14 PDT 0:56
17-07-2014 C750/LGrand Junction Regional ()Sacramento Intl () 17h25 MDT 17h56 PDT 1:31
17-07-2014 C750/LEagle County Rgnl ()Grand Junction Regional () 16h14 MDT 16h36 MDT 0:22
17-07-2014 C750/LTeterboro ()Eagle County Rgnl () 13h30 EDT 14h55 MDT 3:25
17-07-2014 C750/LMc Ghee Tyson ()Teterboro () 10h41 EDT 12h13 EDT 1:32
Les membres inscrits (l'inscription est gratuite et facile!) voient 4 months d'historique. S'inscrire